• Join FlightAware (Why Join?)
  • Login
  • US Flag 
06:17PM EDT


 

Airport Tracker/Info


-or-


 

Live Flight TrackerFlight Track Log ✈ SKW6345 ✈ 23-Jun-2013 ✈ KLAX - KSAN

Flight Track Log - Related Links

Times and Time Zones

All times are in EDT time to prevent confusion due to time zone crossing. See the SKW6345 flight status page for this flight to view local times or setup timezone preferences in your user account.

Time Position Orientation Groundspeed Altitude Reporting Facility
EDT Latitude Longitude Course Direction KTS MPH feet Rate Location/Type
09:06PM 33.9167 -118.4500 139° Southeast 158 182 3,000  Level Southern California TRACON
09:07PM 33.8667 -118.4500 180° South 194 223 4,300 1,380 Climbing Southern California TRACON
09:08PM 33.8167 -118.4500 180° South 203 234 5,900 1,260 Climbing Southern California TRACON
09:09PM 33.7500 -118.4500 180° South 223 257 7,000 1,140 Climbing Southern California TRACON
09:10PM 33.7000 -118.3833 132° Southeast 219 252 8,400 960 Climbing Southern California TRACON
09:11PM 33.6667 -118.3333 129° Southeast 234 269 9,000 300 Climbing Southern California TRACON
09:12PM 33.6543 -118.1134 139° Southeast  Level Estimated
09:12PM 33.6333 -118.2667 121° Southeast 257 296 9,000  Level Southern California TRACON
09:13PM 33.6197 -118.2364 118° Southeast 245 282 9,000  Level Los Angeles Center
09:14PM 33.5703 -118.1478 124° Southeast 263 303 9,000  Level Los Angeles Center
09:15PM 33.5272 -118.0736 125° Southeast 270 311 9,000  Level Los Angeles Center
09:16PM 33.4836 -118.0014 126° Southeast 269 310 9,000  Level Los Angeles Center
09:17PM 33.4483 -117.9419 125° Southeast 273 314 9,000  Level Los Angeles Center
09:18PM 33.3956 -117.8536 126° Southeast 272 313 9,000  Level Los Angeles Center
09:19PM 33.3514 -117.7794 125° Southeast 274 315 9,000  Level Los Angeles Center
09:20PM 33.3075 -117.7050 125° Southeast 275 316 9,000  Level Los Angeles Center
09:21PM 33.2536 -117.6169 126° Southeast 275 316 9,000  Level Los Angeles Center
09:22PM 33.2083 -117.5425 126° Southeast 276 318 9,000  Level Los Angeles Center
09:23PM 33.1550 -117.4819 136° Southeast 275 316 9,000  Level Los Angeles Center
09:24PM 33.0908 -117.4369 150° Southeast 269 310 9,000 -360 Level Los Angeles Center
09:25PM 33.0256 -117.3894 149° Southeast 272 313 8,300 -780 Descending Los Angeles Center
09:26PM 32.9542 -117.3447 152° Southeast 283 326 7,400 -720 Descending Los Angeles Center
09:27PM 32.8667 -117.2833 149° Southeast 278 320 6,900 -660 Descending Southern California TRACON
09:28PM 32.8333 -117.2167 121° Southeast 283 326 6,100 -1,080 Descending Southern California TRACON
09:29PM 32.8000 -117.1333 115° Southeast 251 289 4,800 -1,200 Descending Southern California TRACON
09:30PM 32.7500 -117.0667 132° Southeast 225 259 3,700 -1,380 Descending Southern California TRACON
09:31PM 32.7167 -117.0833 203° Southwest 170 196 2,100 -1,320 Descending Southern California TRACON
09:32PM 32.7167 -117.1333 270° West 146 168 1,100 -960 Descending Southern California TRACON
09:33PM 32.7217 -117.1456 296° West 143 165 700 -660 Descending Los Angeles Center
09:34PM 32.7342 -117.1917 288° West 139 160 100 -600 Descending Los Angeles Center